Time;durP1;ratioP1;P1;durP2;ratioP2;P2;SDS_P1;SDS_P2;PMS_P1;PMS_P2;Temp;Humidity;BMP_temperature;BMP_pressure;BME280_temperature;BME280_humidity;BME280_pressure;Samples;Min_cycle;Max_cycle;Signal;HPM_P1;HPM_P2
2023/04/29 00:02:20;;;;;;;14.40;11.32;;;;;;;;;;5014495;28;20046;-89
2023/04/29 00:04:48;;;;;;;17.33;12.75;;;;;;;;;;5015677;28;20054;-89
2023/04/29 00:07:15;;;;;;;14.52;11.30;;;;;;;;;;5014487;28;20414;-90
2023/04/29 00:09:42;;;;;;;14.10;11.00;;;;;;;;;;5015587;28;20426;-89
2023/04/29 00:12:10;;;;;;;13.38;11.15;;;;;;;;;;5014673;28;20108;-90
2023/04/29 00:14:38;;;;;;;16.13;11.20;;;;;;;;;;5014438;28;20104;-89
2023/04/29 00:17:05;;;;;;;16.50;10.65;;;;;;;;;;5014603;28;20054;-89
2023/04/29 00:19:32;;;;;;;16.10;11.43;;;;;;;;;;5015509;28;20074;-89
2023/04/29 00:22:00;;;;;;;16.63;11.98;;;;;;;;;;5014172;28;20460;-89
2023/04/29 00:24:27;;;;;;;20.23;12.43;;;;;;;;;;5014453;28;20054;-89
2023/04/29 00:26:54;;;;;;;12.15;10.02;;;;;;;;;;5014377;28;20057;-90
2023/04/29 00:29:22;;;;;;;12.07;10.32;;;;;;;;;;5014350;28;20046;-89
2023/04/29 00:31:49;;;;;;;13.75;10.75;;;;;;;;;;5013986;28;20046;-89
2023/04/29 00:34:16;;;;;;;15.00;10.55;;;;;;;;;;5013995;28;20060;-89
2023/04/29 00:36:44;;;;;;;13.07;10.77;;;;;;;;;;5014167;28;20057;-89
2023/04/29 00:39:12;;;;;;;14.38;10.85;;;;;;;;;;5014868;28;20042;-89
2023/04/29 00:41:41;;;;;;;16.05;9.93;;;;;;;;;;5015259;28;20061;-89
2023/04/29 00:44:09;;;;;;;17.92;12.00;;;;;;;;;;5013884;28;20137;-89
2023/04/29 00:46:36;;;;;;;18.83;13.55;;;;;;;;;;5013818;28;20052;-89
2023/04/29 00:49:03;;;;;;;24.23;14.63;;;;;;;;;;5013748;28;20560;-88
2023/04/29 00:51:32;;;;;;;24.95;15.48;;;;;;;;;;5014890;28;20058;-89
2023/04/29 00:53:59;;;;;;;26.02;16.15;;;;;;;;;;5014703;28;20523;-89
2023/04/29 00:56:29;;;;;;;31.13;16.95;;;;;;;;;;5013730;28;20053;-89
2023/04/29 00:58:56;;;;;;;22.73;14.63;;;;;;;;;;5015493;28;20502;-89
2023/04/29 01:01:24;;;;;;;21.52;15.10;;;;;;;;;;5029159;28;20502;-89
2023/04/29 01:03:51;;;;;;;28.00;16.20;;;;;;;;;;5014865;28;20046;-89
2023/04/29 01:06:28;;;;;;;21.88;14.35;;;;;;;;;;5014397;28;20446;-89
2023/04/29 01:09:10;;;;;;;20.40;14.73;;;;;;;;;;5013686;28;20050;-89
2023/04/29 01:11:42;;;;;;;20.65;14.68;;;;;;;;;;5013592;28;20065;-89
2023/04/29 01:14:09;;;;;;;25.50;16.27;;;;;;;;;;5013442;28;20133;-89
2023/04/29 01:16:44;;;;;;;24.05;15.75;;;;;;;;;;5014470;28;20045;-88
2023/04/29 01:19:26;;;;;;;21.83;15.43;;;;;;;;;;5013361;28;20051;-89
2023/04/29 01:21:53;;;;;;;25.52;17.10;;;;;;;;;;5014123;28;20057;-89
2023/04/29 01:24:20;;;;;;;18.63;14.23;;;;;;;;;;5013349;28;20505;-89
2023/04/29 01:26:57;;;;;;;17.95;13.15;;;;;;;;;;5014110;28;20050;-89
2023/04/29 01:29:32;;;;;;;16.83;12.25;;;;;;;;;;5013394;28;20564;-89
2023/04/29 01:32:03;;;;;;;22.35;12.88;;;;;;;;;;5013225;28;20046;-89
2023/04/29 01:34:33;;;;;;;21.15;13.88;;;;;;;;;;5013228;28;20050;-89
2023/04/29 01:37:14;;;;;;;20.48;13.90;;;;;;;;;;5014129;28;20057;-89
2023/04/29 01:39:46;;;;;;;23.95;13.00;;;;;;;;;;5013403;28;20050;-89
2023/04/29 01:42:31;;;;;;;18.00;13.00;;;;;;;;;;5013995;28;20422;-89
2023/04/29 01:45:00;;;;;;;15.82;12.27;;;;;;;;;;5013911;28;20064;-89
2023/04/29 01:47:28;;;;;;;21.13;14.60;;;;;;;;;;5012802;28;20056;-88
2023/04/29 01:49:56;;;;;;;22.00;15.07;;;;;;;;;;5013842;28;20047;-89
2023/04/29 01:52:23;;;;;;;23.63;15.88;;;;;;;;;;5013036;28;20088;-89
2023/04/29 01:54:50;;;;;;;29.75;17.02;;;;;;;;;;5012688;28;20053;-88
2023/04/29 01:57:18;;;;;;;35.65;17.98;;;;;;;;;;5012852;28;20046;-89
2023/04/29 01:59:45;;;;;;;41.20;18.50;;;;;;;;;;5012819;28;20115;-89
2023/04/29 02:02:14;;;;;;;31.85;18.17;;;;;;;;;;5012672;28;20482;-89
2023/04/29 02:04:41;;;;;;;25.55;17.10;;;;;;;;;;5013514;28;20086;-89
2023/04/29 02:07:09;;;;;;;28.50;16.95;;;;;;;;;;5013428;28;20046;-89
2023/04/29 02:09:36;;;;;;;24.10;14.82;;;;;;;;;;5013582;28;20543;-89
2023/04/29 02:12:03;;;;;;;22.10;14.13;;;;;;;;;;5013350;28;20088;-89
2023/04/29 02:14:31;;;;;;;21.23;13.75;;;;;;;;;;5026449;28;20038;-89
2023/04/29 02:16:58;;;;;;;28.95;14.48;;;;;;;;;;5013727;28;20065;-88
2023/04/29 02:19:25;;;;;;;38.17;13.00;;;;;;;;;;5014812;28;20061;-88
2023/04/29 02:21:52;;;;;;;41.90;14.88;;;;;;;;;;5015983;28;20065;-89
2023/04/29 02:24:19;;;;;;;18.52;13.70;;;;;;;;;;5017522;28;20046;-88
2023/04/29 02:26:49;;;;;;;22.17;13.63;;;;;;;;;;5016355;28;20141;-88
2023/04/29 02:29:16;;;;;;;16.95;12.43;;;;;;;;;;5017205;28;20050;-89
2023/04/29 02:31:44;;;;;;;21.08;13.50;;;;;;;;;;5016324;28;20054;-88
2023/04/29 02:34:11;;;;;;;22.75;14.43;;;;;;;;;;5016238;28;20057;-88
2023/04/29 02:36:38;;;;;;;22.98;15.02;;;;;;;;;;5016148;28;20041;-88
2023/04/29 02:39:06;;;;;;;34.67;15.73;;;;;;;;;;5017187;28;20042;-89
2023/04/29 02:41:33;;;;;;;32.10;18.50;;;;;;;;;;5015845;28;20046;-88
2023/04/29 02:44:00;;;;;;;35.20;18.30;;;;;;;;;;5016968;28;20419;-88
2023/04/29 02:46:27;;;;;;;23.92;15.20;;;;;;;;;;5017143;28;20053;-88
2023/04/29 02:48:55;;;;;;;30.60;17.02;;;;;;;;;;5016016;28;20100;-87
2023/04/29 02:51:22;;;;;;;29.60;15.38;;;;;;;;;;5016724;28;20129;-89
2023/04/29 02:53:49;;;;;;;35.95;15.68;;;;;;;;;;5016609;28;20045;-88
2023/04/29 02:56:17;;;;;;;36.97;14.90;;;;;;;;;;5015794;28;20244;-88
2023/04/29 02:58:44;;;;;;;43.08;17.08;;;;;;;;;;5015901;28;20060;-89
2023/04/29 03:01:11;;;;;;;44.78;17.08;;;;;;;;;;5015754;28;20062;-89
2023/04/29 03:03:38;;;;;;;49.83;17.00;;;;;;;;;;5015594;28;20391;-88
2023/04/29 03:06:06;;;;;;;59.33;17.17;;;;;;;;;;5015469;28;20125;-88
2023/04/29 03:08:34;;;;;;;34.80;16.80;;;;;;;;;;5015544;28;20081;-88
2023/04/29 03:11:02;;;;;;;33.20;16.25;;;;;;;;;;5015563;28;20482;-89
2023/04/29 03:13:29;;;;;;;50.28;19.27;;;;;;;;;;5015555;28;20133;-89
2023/04/29 03:15:58;;;;;;;33.63;16.52;;;;;;;;;;5016408;28;20136;-89
2023/04/29 03:18:25;;;;;;;28.23;15.55;;;;;;;;;;5015467;28;20049;-88
2023/04/29 03:20:53;;;;;;;24.65;14.88;;;;;;;;;;5015170;28;20049;-87
2023/04/29 03:23:21;;;;;;;32.20;16.13;;;;;;;;;;5015365;28;20053;-89
2023/04/29 03:25:48;;;;;;;31.23;17.13;;;;;;;;;;5015488;28;20077;-88
2023/04/29 03:28:16;;;;;;;37.00;17.73;;;;;;;;;;5027141;28;20046;-88
2023/04/29 03:30:43;;;;;;;39.25;17.98;;;;;;;;;;5018661;28;20049;-88
2023/04/29 03:33:11;;;;;;;41.85;18.13;;;;;;;;;;5015021;28;20046;-88
2023/04/29 03:35:38;;;;;;;43.97;18.98;;;;;;;;;;5015138;28;20064;-88
2023/04/29 03:38:05;;;;;;;59.78;21.13;;;;;;;;;;5015963;28;20046;-88
2023/04/29 03:40:32;;;;;;;70.60;21.83;;;;;;;;;;5016144;28;20060;-88
2023/04/29 03:43:00;;;;;;;35.58;17.85;;;;;;;;;;5014949;28;20129;-89
2023/04/29 03:45:27;;;;;;;35.92;18.02;;;;;;;;;;5015875;28;20046;-88
2023/04/29 03:47:54;;;;;;;45.25;18.50;;;;;;;;;;5014747;28;20085;-89
2023/04/29 03:50:22;;;;;;;41.55;18.08;;;;;;;;;;5015974;28;20046;-88
2023/04/29 03:52:49;;;;;;;36.95;17.52;;;;;;;;;;5014673;28;20100;-88
2023/04/29 03:55:17;;;;;;;37.40;17.15;;;;;;;;;;5014648;28;20482;-88
2023/04/29 03:57:44;;;;;;;32.28;16.85;;;;;;;;;;5014604;28;20391;-88
2023/04/29 04:00:11;;;;;;;27.63;14.85;;;;;;;;;;5015827;28;20060;-89
2023/04/29 04:02:39;;;;;;;27.60;15.68;;;;;;;;;;5014347;28;20483;-88
2023/04/29 04:05:07;;;;;;;23.85;15.00;;;;;;;;;;5014340;28;20053;-88
2023/04/29 04:07:34;;;;;;;37.03;21.77;;;;;;;;;;5015627;28;20050;-88
2023/04/29 04:10:01;;;;;;;55.97;30.23;;;;;;;;;;5014435;28;20077;-88
2023/04/29 04:12:28;;;;;;;43.72;26.50;;;;;;;;;;5015253;28;20494;-88
2023/04/29 04:14:56;;;;;;;52.90;27.52;;;;;;;;;;5014114;28;20053;-88
2023/04/29 04:17:23;;;;;;;35.88;20.55;;;;;;;;;;5014361;28;20050;-88
2023/04/29 04:19:51;;;;;;;55.60;22.00;;;;;;;;;;5014212;28;20085;-89
2023/04/29 04:22:19;;;;;;;56.75;20.58;;;;;;;;;;5014101;28;20049;-89
2023/04/29 04:24:46;;;;;;;39.95;19.45;;;;;;;;;;5014123;28;20057;-88
2023/04/29 04:27:13;;;;;;;39.63;18.55;;;;;;;;;;5014221;28;20064;-88
2023/04/29 04:29:40;;;;;;;31.85;17.38;;;;;;;;;;5015172;28;20056;-88
2023/04/29 04:32:07;;;;;;;45.33;19.60;;;;;;;;;;5014846;28;20050;-88
2023/04/29 04:34:35;;;;;;;54.33;21.02;;;;;;;;;;5014061;28;20501;-88
2023/04/29 04:37:02;;;;;;;28.27;16.52;;;;;;;;;;5015031;28;20073;-88
2023/04/29 04:39:29;;;;;;;31.42;17.00;;;;;;;;;;5014777;28;20050;-88
2023/04/29 04:41:56;;;;;;;26.65;17.27;;;;;;;;;;5023595;28;20034;-89
2023/04/29 04:44:23;;;;;;;29.75;18.85;;;;;;;;;;5021606;28;20085;-88
2023/04/29 04:46:51;;;;;;;28.45;17.48;;;;;;;;;;5013843;28;20046;-89
2023/04/29 04:49:18;;;;;;;25.77;17.13;;;;;;;;;;5014716;28;20482;-89
2023/04/29 04:51:46;;;;;;;27.45;18.58;;;;;;;;;;5013745;28;20143;-88
2023/04/29 04:54:13;;;;;;;22.40;17.55;;;;;;;;;;5014596;28;20069;-88
2023/04/29 04:56:41;;;;;;;21.77;16.20;;;;;;;;;;5013534;28;20100;-87
2023/04/29 04:59:10;;;;;;;26.73;19.23;;;;;;;;;;5013318;28;20070;-88
2023/04/29 05:01:37;;;;;;;27.30;18.75;;;;;;;;;;5013771;28;20064;-88
2023/04/29 05:04:04;;;;;;;27.80;19.08;;;;;;;;;;5013469;28;20058;-89
2023/04/29 05:06:35;;;;;;;19.98;16.85;;;;;;;;;;5014848;28;20050;-89
2023/04/29 05:09:02;;;;;;;23.50;16.85;;;;;;;;;;5014304;28;20056;-89
2023/04/29 05:11:29;;;;;;;23.02;17.73;;;;;;;;;;5013522;28;20129;-89
2023/04/29 05:13:56;;;;;;;24.10;19.08;;;;;;;;;;5014355;28;20054;-89
2023/04/29 05:16:23;;;;;;;54.40;28.52;;;;;;;;;;5014509;28;20136;-88
2023/04/29 05:18:50;;;;;;;27.95;22.05;;;;;;;;;;5013336;28;20461;-89
2023/04/29 05:21:18;;;;;;;26.52;19.50;;;;;;;;;;5013287;28;20060;-89
2023/04/29 05:23:45;;;;;;;19.83;16.77;;;;;;;;;;5013257;28;20141;-89
2023/04/29 05:26:12;;;;;;;20.85;15.50;;;;;;;;;;5012980;28;20478;-89
2023/04/29 05:28:39;;;;;;;16.85;13.90;;;;;;;;;;5014274;28;20417;-89
2023/04/29 05:31:06;;;;;;;17.08;14.55;;;;;;;;;;5014181;28;20054;-89
2023/04/29 05:33:34;;;;;;;24.83;15.82;;;;;;;;;;5013218;28;20050;-88
2023/04/29 05:36:01;;;;;;;26.10;16.55;;;;;;;;;;5013265;28;20049;-89
2023/04/29 05:38:28;;;;;;;20.30;15.05;;;;;;;;;;5013103;28;20514;-88
2023/04/29 05:40:56;;;;;;;22.30;16.25;;;;;;;;;;5014100;28;20053;-89
2023/04/29 05:43:23;;;;;;;26.40;17.88;;;;;;;;;;5013501;28;20056;-88
2023/04/29 05:45:50;;;;;;;21.42;16.20;;;;;;;;;;5013059;28;20050;-88
2023/04/29 05:48:18;;;;;;;24.92;18.77;;;;;;;;;;5013008;28;20042;-87
2023/04/29 05:50:47;;;;;;;27.90;18.67;;;;;;;;;;5014251;28;20054;-87
2023/04/29 05:53:14;;;;;;;22.83;18.08;;;;;;;;;;5012490;28;20049;-87
2023/04/29 05:55:43;;;;;;;46.05;24.67;;;;;;;;;;5021925;28;20037;-87
2023/04/29 05:58:11;;;;;;;25.25;17.85;;;;;;;;;;5023827;28;20081;-86
2023/04/29 06:00:38;;;;;;;25.25;17.98;;;;;;;;;;5013648;28;20129;-86
2023/04/29 06:03:06;;;;;;;24.23;18.20;;;;;;;;;;5013390;28;20049;-86
2023/04/29 06:05:33;;;;;;;45.28;25.08;;;;;;;;;;5012253;28;20049;-86
2023/04/29 06:08:02;;;;;;;23.25;17.17;;;;;;;;;;5012235;28;20049;-85
2023/04/29 06:10:30;;;;;;;22.20;17.20;;;;;;;;;;5012113;28;20060;-85
2023/04/29 06:12:58;;;;;;;22.55;17.63;;;;;;;;;;5012284;28;20566;-85
2023/04/29 06:15:25;;;;;;;22.92;16.40;;;;;;;;;;5012186;28;20050;-85
2023/04/29 06:17:52;;;;;;;25.40;17.58;;;;;;;;;;5013259;28;20061;-85
2023/04/29 06:20:19;;;;;;;20.00;13.88;;;;;;;;;;5012311;28;20050;-85
2023/04/29 06:22:47;;;;;;;24.08;16.67;;;;;;;;;;5011939;28;20053;-85
2023/04/29 06:25:14;;;;;;;25.17;15.85;;;;;;;;;;5011674;28;20046;-84
2023/04/29 06:27:41;;;;;;;18.98;15.02;;;;;;;;;;5011362;28;20062;-84
2023/04/29 06:30:08;;;;;;;18.15;12.27;;;;;;;;;;5011273;28;20049;-84
2023/04/29 06:32:36;;;;;;;32.97;20.13;;;;;;;;;;5011319;28;20052;-84
2023/04/29 06:35:03;;;;;;;22.35;15.10;;;;;;;;;;5011230;28;20056;-84
2023/04/29 06:37:30;;;;;;;17.42;10.85;;;;;;;;;;5012644;28;20050;-84
2023/04/29 06:39:57;;;;;;;25.08;17.95;;;;;;;;;;5012474;28;20054;-84
2023/04/29 06:42:24;;;;;;;20.00;13.23;;;;;;;;;;5011470;28;20061;-84
2023/04/29 06:44:51;;;;;;;29.20;17.98;;;;;;;;;;5012330;28;20137;-85
2023/04/29 06:47:19;;;;;;;46.83;41.75;;;;;;;;;;5011672;28;20387;-85
2023/04/29 06:49:46;;;;;;;23.30;16.65;;;;;;;;;;5011772;28;20085;-84
2023/04/29 06:52:13;;;;;;;23.35;14.45;;;;;;;;;;5011552;28;20413;-85
2023/04/29 06:54:41;;;;;;;18.63;11.60;;;;;;;;;;5011533;28;20056;-84
2023/04/29 06:57:08;;;;;;;14.73;10.80;;;;;;;;;;5012458;28;20056;-85
2023/04/29 06:59:35;;;;;;;19.95;13.23;;;;;;;;;;5011478;28;20049;-85
2023/04/29 07:02:03;;;;;;;22.02;16.48;;;;;;;;;;5011594;28;20554;-85
2023/04/29 07:04:30;;;;;;;11.85;8.32;;;;;;;;;;5013366;28;20058;-85
2023/04/29 07:06:58;;;;;;;9.55;7.28;;;;;;;;;;5015218;28;20046;-85
2023/04/29 07:09:26;;;;;;;10.88;7.88;;;;;;;;;;5018510;28;20053;-84
2023/04/29 07:11:54;;;;;;;7.45;6.75;;;;;;;;;;5029103;28;20060;-84
2023/04/29 07:14:21;;;;;;;7.90;6.38;;;;;;;;;;5014879;28;20049;-85
2023/04/29 07:16:55;;;;;;;7.68;5.55;;;;;;;;;;5014757;28;20073;-85
2023/04/29 07:19:22;;;;;;;3.78;3.47;;;;;;;;;;5015242;28;20064;-85
2023/04/29 07:21:49;;;;;;;8.90;3.72;;;;;;;;;;5014569;28;20402;-85
2023/04/29 07:24:16;;;;;;;5.55;3.30;;;;;;;;;;5014795;28;20049;-85
2023/04/29 07:26:44;;;;;;;4.65;2.85;;;;;;;;;;5014634;28;20403;-85
2023/04/29 07:29:11;;;;;;;69.65;7.10;;;;;;;;;;5014496;28;20056;-85
2023/04/29 07:31:38;;;;;;;8.23;2.95;;;;;;;;;;5016029;28;20569;-85
2023/04/29 07:34:06;;;;;;;2.15;2.03;;;;;;;;;;5014545;28;20045;-85
2023/04/29 07:36:34;;;;;;;3.85;2.33;;;;;;;;;;5014409;28;20052;-85
2023/04/29 07:39:01;;;;;;;2.88;2.70;;;;;;;;;;5014208;28;20477;-85
2023/04/29 07:41:28;;;;;;;3.03;2.70;;;;;;;;;;5014275;28;20056;-85
2023/04/29 07:43:55;;;;;;;3.05;2.85;;;;;;;;;;5015541;28;20414;-85
2023/04/29 07:46:23;;;;;;;2.70;2.50;;;;;;;;;;5015342;28;20068;-85
2023/04/29 07:48:50;;;;;;;3.20;2.90;;;;;;;;;;5015016;28;20088;-84
2023/04/29 07:51:17;;;;;;;3.55;3.00;;;;;;;;;;5015232;28;20164;-84
2023/04/29 07:53:45;;;;;;;3.53;3.22;;;;;;;;;;5014017;28;20085;-85
2023/04/29 07:56:12;;;;;;;3.20;2.92;;;;;;;;;;5013872;28;20050;-84
2023/04/29 07:58:39;;;;;;;3.42;3.22;;;;;;;;;;5015169;28;20060;-84
2023/04/29 08:01:10;;;;;;;3.60;3.30;;;;;;;;;;5013838;28;20046;-84
2023/04/29 08:03:38;;;;;;;4.80;3.90;;;;;;;;;;5015011;28;20081;-84
2023/04/29 08:06:08;;;;;;;3.33;3.03;;;;;;;;;;5014696;28;20112;-85
2023/04/29 08:08:35;;;;;;;4.63;3.42;;;;;;;;;;5013488;28;20054;-84
2023/04/29 08:11:03;;;;;;;3.55;3.28;;;;;;;;;;5013696;28;20080;-84
2023/04/29 08:13:30;;;;;;;3.22;3.03;;;;;;;;;;5013542;28;20042;-84
2023/04/29 08:15:57;;;;;;;2.67;2.58;;;;;;;;;;5012429;28;20054;-83
2023/04/29 08:18:25;;;;;;;4.97;4.35;;;;;;;;;;5013347;28;20049;-84
2023/04/29 08:20:52;;;;;;;10.82;7.57;;;;;;;;;;5013852;28;20398;-83
2023/04/29 08:23:19;;;;;;;10.05;7.65;;;;;;;;;;5013107;28;20430;-83
2023/04/29 08:25:46;;;;;;;8.70;6.05;;;;;;;;;;5014837;28;20049;-83
2023/04/29 08:28:13;;;;;;;39.80;23.63;;;;;;;;;;5014484;28;20050;-83
2023/04/29 08:30:41;;;;;;;17.20;11.90;;;;;;;;;;5013008;28;20054;-83
2023/04/29 08:33:09;;;;;;;6.13;5.10;;;;;;;;;;5013730;28;20049;-83
2023/04/29 08:35:36;;;;;;;10.50;8.57;;;;;;;;;;5014199;28;20058;-83
2023/04/29 08:38:07;;;;;;;9.68;7.43;;;;;;;;;;5014112;28;20116;-83
2023/04/29 08:40:35;;;;;;;4.70;4.20;;;;;;;;;;5014288;28;20050;-83
2023/04/29 08:43:05;;;;;;;3.92;3.58;;;;;;;;;;5014021;28;20050;-82
2023/04/29 08:45:32;;;;;;;15.18;4.88;;;;;;;;;;5012671;28;20529;-82
2023/04/29 08:48:00;;;;;;;49.85;6.78;;;;;;;;;;5012743;28;20050;-82
2023/04/29 08:50:29;;;;;;;24.45;4.43;;;;;;;;;;5013778;28;20430;-82
2023/04/29 08:52:56;;;;;;;12.90;3.88;;;;;;;;;;5012747;28;20504;-82
2023/04/29 08:55:25;;;;;;;5.80;2.30;;;;;;;;;;5013833;28;20049;-82
2023/04/29 08:57:53;;;;;;;3.80;2.40;;;;;;;;;;5013736;28;20137;-82
2023/04/29 09:00:21;;;;;;;3.85;3.55;;;;;;;;;;5012740;28;20081;-82
2023/04/29 09:02:53;;;;;;;5.28;3.42;;;;;;;;;;5012689;28;20054;-83
2023/04/29 09:05:21;;;;;;;5.90;4.90;;;;;;;;;;5012303;28;20461;-83
2023/04/29 09:07:50;;;;;;;5.65;5.03;;;;;;;;;;5013766;28;20052;-81
2023/04/29 09:10:17;;;;;;;4.80;3.20;;;;;;;;;;5013421;28;20060;-83
2023/04/29 09:12:45;;;;;;;4.72;2.75;;;;;;;;;;5012223;28;20505;-83
2023/04/29 09:15:12;;;;;;;2.80;2.60;;;;;;;;;;5013375;28;20089;-83
2023/04/29 09:17:46;;;;;;;2.50;2.30;;;;;;;;;;5013452;28;20561;-83
2023/04/29 09:20:20;;;;;;;2.30;2.20;;;;;;;;;;5013518;28;20054;-83
2023/04/29 09:22:48;;;;;;;2.28;2.15;;;;;;;;;;5012016;28;20085;-82
2023/04/29 09:25:15;;;;;;;1.67;1.63;;;;;;;;;;5013471;28;20042;-83
2023/04/29 09:27:42;;;;;;;1.70;1.60;;;;;;;;;;5011963;28;20053;-83
2023/04/29 09:30:11;;;;;;;1.67;1.58;;;;;;;;;;5013158;28;20060;-83
2023/04/29 09:32:38;;;;;;;5.55;1.90;;;;;;;;;;5013546;28;20042;-83
2023/04/29 09:35:25;;;;;;;1.90;1.80;;;;;;;;;;5011899;28;20056;-84
2023/04/29 09:37:53;;;;;;;1.73;1.63;;;;;;;;;;5014012;28;20053;-84
2023/04/29 09:40:33;;;;;;;2.35;1.42;;;;;;;;;;5013150;28;20577;-83
2023/04/29 09:43:17;;;;;;;1.55;1.45;;;;;;;;;;5013145;28;20108;-83
2023/04/29 09:45:46;;;;;;;2.33;1.67;;;;;;;;;;5013085;28;20521;-84
2023/04/29 09:48:14;;;;;;;1.70;1.60;;;;;;;;;;5012972;28;20058;-84
2023/04/29 09:50:42;;;;;;;5.45;2.00;;;;;;;;;;5012814;28;20486;-84
2023/04/29 09:53:10;;;;;;;1.90;1.80;;;;;;;;;;5011607;28;20451;-85
2023/04/29 09:55:58;;;;;;;1.85;1.33;;;;;;;;;;5013052;28;20052;-84
2023/04/29 09:58:39;;;;;;;2.35;1.60;;;;;;;;;;5011953;28;20046;-84
2023/04/29 10:01:07;;;;;;;1.70;1.60;;;;;;;;;;5012051;28;20064;-84
2023/04/29 10:03:38;;;;;;;1.35;1.25;;;;;;;;;;5012040;28;20046;-84
2023/04/29 10:06:06;;;;;;;1.65;1.55;;;;;;;;;;5012024;28;20053;-85
2023/04/29 10:08:34;;;;;;;1.40;1.30;;;;;;;;;;5011886;28;20056;-85
2023/04/29 10:11:03;;;;;;;1.83;1.30;;;;;;;;;;5011598;28;20065;-85
2023/04/29 10:13:30;;;;;;;1.58;1.20;;;;;;;;;;5011889;28;20052;-85
2023/04/29 10:16:03;;;;;;;1.20;1.20;;;;;;;;;;5011794;28;20053;-85
2023/04/29 10:18:37;;;;;;;1.60;1.25;;;;;;;;;;5013166;28;20050;-84
2023/04/29 10:21:08;;;;;;;1.42;1.30;;;;;;;;;;5011583;28;20080;-85
2023/04/29 10:23:36;;;;;;;5.00;1.30;;;;;;;;;;5011610;28;20054;-85
2023/04/29 10:26:03;;;;;;;1.63;1.38;;;;;;;;;;5011999;28;20054;-85
2023/04/29 10:28:31;;;;;;;1.25;1.25;;;;;;;;;;5013908;28;20100;-85
2023/04/29 10:31:04;;;;;;;1.48;1.38;;;;;;;;;;5011886;28;20061;-85
2023/04/29 10:33:35;;;;;;;1.67;1.57;;;;;;;;;;5012319;28;20078;-85
2023/04/29 10:36:02;;;;;;;2.00;1.90;;;;;;;;;;5011835;28;20495;-85
2023/04/29 10:38:36;;;;;;;2.08;1.98;;;;;;;;;;5011970;28;20073;-86
2023/04/29 10:41:08;;;;;;;2.58;2.38;;;;;;;;;;5015407;28;20053;-86
2023/04/29 10:43:36;;;;;;;2.85;2.22;;;;;;;;;;5015788;28;20058;-85
2023/04/29 10:46:15;;;;;;;2.80;2.60;;;;;;;;;;5015717;28;20082;-86
2023/04/29 10:48:43;;;;;;;11.55;9.02;;;;;;;;;;5015987;28;20050;-86
2023/04/29 10:51:10;;;;;;;5.10;4.60;;;;;;;;;;5020884;28;20054;-86
2023/04/29 10:53:56;;;;;;;2.55;2.35;;;;;;;;;;5017012;28;20053;-85
2023/04/29 10:56:35;;;;;;;2.15;2.00;;;;;;;;;;5016628;28;20061;-86
2023/04/29 10:59:02;;;;;;;2.58;2.38;;;;;;;;;;5015674;28;20422;-86
2023/04/29 11:01:46;;;;;;;2.00;1.90;;;;;;;;;;5015711;28;20049;-88
2023/04/29 11:04:13;;;;;;;2.17;2.08;;;;;;;;;;5016899;28;20057;-87
2023/04/29 11:06:42;;;;;;;2.08;1.98;;;;;;;;;;5017379;28;20104;-87
2023/04/29 11:09:13;;;;;;;1.75;1.65;;;;;;;;;;5015694;28;20060;-87
2023/04/29 11:11:42;;;;;;;2.38;1.65;;;;;;;;;;5016254;28;20053;-87
2023/04/29 11:14:12;;;;;;;1.70;1.60;;;;;;;;;;5016413;28;20068;-87
2023/04/29 11:17:09;;;;;;;124.57;66.03;;;;;;;;;;5015970;28;20060;-88
2023/04/29 11:19:40;;;;;;;2.35;1.90;;;;;;;;;;5016095;28;20521;-87
2023/04/29 11:22:08;;;;;;;2.17;1.48;;;;;;;;;;5015579;28;20142;-87
2023/04/29 11:24:36;;;;;;;1.77;1.60;;;;;;;;;;5015545;28;20136;-88
2023/04/29 11:27:04;;;;;;;1.92;1.80;;;;;;;;;;5015774;28;20053;-88
2023/04/29 11:29:32;;;;;;;8.68;2.17;;;;;;;;;;5015961;28;20046;-87
2023/04/29 11:32:01;;;;;;;1.60;1.50;;;;;;;;;;5015651;28;20057;-88
2023/04/29 11:34:28;;;;;;;1.92;1.83;;;;;;;;;;5015572;28;20053;-89
2023/04/29 11:36:56;;;;;;;1.83;1.73;;;;;;;;;;5016726;28;20100;-88
2023/04/29 11:39:24;;;;;;;10.00;4.72;;;;;;;;;;5015662;28;20414;-88
2023/04/29 11:41:51;;;;;;;2.72;2.50;;;;;;;;;;5015588;28;20054;-87
2023/04/29 11:44:22;;;;;;;2.38;1.90;;;;;;;;;;5016242;28;20085;-88
2023/04/29 11:46:50;;;;;;;3.03;2.83;;;;;;;;;;5015063;28;20078;-88
2023/04/29 11:49:17;;;;;;;3.15;2.85;;;;;;;;;;5015102;28;20049;-88
2023/04/29 11:51:45;;;;;;;3.00;2.80;;;;;;;;;;5014542;28;20049;-88
2023/04/29 11:54:12;;;;;;;4.20;2.67;;;;;;;;;;5016348;28;20164;-87
2023/04/29 11:56:39;;;;;;;2.38;2.20;;;;;;;;;;5015352;28;20485;-88
2023/04/29 11:59:07;;;;;;;9.00;2.63;;;;;;;;;;5014362;28;20077;-89
2023/04/29 12:01:35;;;;;;;7.32;2.30;;;;;;;;;;5016306;28;20058;-89
2023/04/29 12:04:04;;;;;;;2.53;2.30;;;;;;;;;;5019447;28;20050;-88
2023/04/29 12:06:32;;;;;;;51.70;8.13;;;;;;;;;;5017481;28;20049;-88
2023/04/29 12:09:00;;;;;;;10.68;3.95;;;;;;;;;;5014622;28;20054;-88
2023/04/29 12:11:27;;;;;;;2.47;2.38;;;;;;;;;;5014734;28;20049;-88
2023/04/29 12:13:55;;;;;;;3.88;2.83;;;;;;;;;;5014667;28;20046;-89
2023/04/29 12:16:22;;;;;;;19.10;3.83;;;;;;;;;;5014951;28;20140;-88
2023/04/29 12:18:51;;;;;;;5.85;2.67;;;;;;;;;;5014819;28;20128;-89
2023/04/29 12:21:18;;;;;;;3.28;2.85;;;;;;;;;;5014595;28;20479;-88
2023/04/29 12:23:46;;;;;;;5.18;2.35;;;;;;;;;;5015123;28;20136;-89
2023/04/29 12:26:13;;;;;;;9.50;3.05;;;;;;;;;;5014621;28;20050;-90
2023/04/29 12:28:41;;;;;;;7.63;3.60;;;;;;;;;;5017225;28;20082;-89
2023/04/29 12:31:10;;;;;;;4.82;3.85;;;;;;;;;;5015037;28;20069;-90
2023/04/29 12:33:37;;;;;;;4.10;3.80;;;;;;;;;;5014954;28;20107;-89
2023/04/29 12:36:16;;;;;;;10.30;4.53;;;;;;;;;;5015966;28;20136;-89
2023/04/29 12:38:43;;;;;;;4.90;4.43;;;;;;;;;;5015148;28;20080;-89
2023/04/29 12:41:13;;;;;;;6.25;4.35;;;;;;;;;;5016581;28;20058;-90
2023/04/29 12:43:41;;;;;;;5.43;4.95;;;;;;;;;;5015027;28;20141;-89
2023/04/29 12:46:09;;;;;;;8.80;6.20;;;;;;;;;;5016877;28;20049;-89
2023/04/29 12:48:37;;;;;;;4.50;4.10;;;;;;;;;;5015227;28;20418;-89
2023/04/29 12:51:05;;;;;;;9.18;8.10;;;;;;;;;;5014328;28;20061;-90
2023/04/29 12:53:32;;;;;;;7.60;5.90;;;;;;;;;;5014628;28;20073;-89
2023/04/29 12:56:01;;;;;;;13.77;10.57;;;;;;;;;;5014345;28;20057;-90
2023/04/29 12:58:29;;;;;;;5.35;4.22;;;;;;;;;;5015326;28;20133;-90
2023/04/29 13:00:56;;;;;;;11.80;4.70;;;;;;;;;;5015876;28;20509;-90
2023/04/29 13:03:24;;;;;;;10.07;5.20;;;;;;;;;;5015604;28;20096;-90
2023/04/29 13:05:53;;;;;;;6.75;5.13;;;;;;;;;;5014591;28;20049;-90
2023/04/29 13:08:21;;;;;;;8.57;5.65;;;;;;;;;;5013573;28;20046;-90
2023/04/29 13:10:49;;;;;;;11.40;5.72;;;;;;;;;;5013541;28;20238;-90
2023/04/29 13:13:16;;;;;;;10.70;5.03;;;;;;;;;;5014204;28;20222;-90
2023/04/29 13:15:44;;;;;;;7.35;4.85;;;;;;;;;;5014670;28;20478;-91
2023/04/29 13:18:14;;;;;;;7.20;5.00;;;;;;;;;;5016282;28;20045;-89
2023/04/29 13:20:41;;;;;;;22.67;5.93;;;;;;;;;;5027311;28;20045;-90
2023/04/29 13:23:09;;;;;;;7.22;4.93;;;;;;;;;;5015378;28;20498;-89
2023/04/29 13:25:36;;;;;;;8.82;7.20;;;;;;;;;;5015271;28;20107;-89
2023/04/29 13:28:06;;;;;;;4.97;4.57;;;;;;;;;;5014807;28;20441;-89
2023/04/29 13:30:34;;;;;;;5.75;5.25;;;;;;;;;;5013619;28;20050;-89
2023/04/29 13:33:01;;;;;;;5.80;5.28;;;;;;;;;;5013756;28;20060;-89
2023/04/29 13:35:40;;;;;;;5.40;4.90;;;;;;;;;;5013314;28;20100;-89
2023/04/29 13:38:08;;;;;;;8.00;5.60;;;;;;;;;;5013382;28;20132;-89
2023/04/29 13:40:35;;;;;;;5.85;5.28;;;;;;;;;;5013157;28;20490;-89
2023/04/29 13:43:10;;;;;;;11.93;5.65;;;;;;;;;;5014632;28;20376;-88
2023/04/29 13:45:42;;;;;;;14.50;5.65;;;;;;;;;;5014555;28;20042;-89
2023/04/29 13:48:14;;;;;;;5.55;4.93;;;;;;;;;;5014494;28;20057;-90
2023/04/29 13:51:02;;;;;;;184.45;13.48;;;;;;;;;;5014459;28;20053;-88
2023/04/29 13:53:32;;;;;;;16.90;7.03;;;;;;;;;;5014350;28;20517;-91
2023/04/29 13:56:20;;;;;;;5.53;5.03;;;;;;;;;;5013934;28;20042;-89
2023/04/29 13:58:51;;;;;;;6.80;6.13;;;;;;;;;;5013453;28;20439;-89
2023/04/29 14:01:38;;;;;;;6.40;5.60;;;;;;;;;;5013212;28;20053;-89
2023/04/29 14:04:26;;;;;;;6.00;5.40;;;;;;;;;;5013712;28;20100;-89
2023/04/29 14:06:54;;;;;;;5.43;4.93;;;;;;;;;;5014353;28;20050;-89
2023/04/29 14:09:21;;;;;;;11.38;5.28;;;;;;;;;;5012974;28;20049;-89
2023/04/29 14:11:49;;;;;;;7.45;6.22;;;;;;;;;;5013372;28;20061;-90
2023/04/29 14:14:17;;;;;;;17.90;7.35;;;;;;;;;;5012912;28;20482;-91
2023/04/29 14:16:44;;;;;;;10.25;8.20;;;;;;;;;;5016878;28;20096;-89
2023/04/29 14:19:11;;;;;;;178.90;15.48;;;;;;;;;;5017887;28;20050;-89
2023/04/29 14:21:39;;;;;;;8.88;7.90;;;;;;;;;;5019966;28;20050;-90
2023/04/29 14:24:06;;;;;;;15.00;8.38;;;;;;;;;;5017606;28;20061;-88
2023/04/29 14:26:33;;;;;;;14.50;10.55;;;;;;;;;;5017108;28;20049;-90
2023/04/29 14:29:00;;;;;;;8.85;7.93;;;;;;;;;;5016759;28;20475;-89
2023/04/29 14:31:29;;;;;;;41.17;25.67;;;;;;;;;;5016811;28;20050;-89
2023/04/29 14:33:57;;;;;;;13.73;11.63;;;;;;;;;;5016429;28;20080;-89
2023/04/29 14:36:25;;;;;;;35.92;23.90;;;;;;;;;;5020577;28;20494;-90
2023/04/29 14:38:52;;;;;;;12.00;9.82;;;;;;;;;;5017150;28;20048;-89